sensor_id;sensor_type;location;lat;lon;timestamp;temperature;humidity
71994;DHT22;59861;50.268;8.648;2023-05-07T00:02:00;17.80;66.60
71994;DHT22;59861;50.268;8.648;2023-05-07T00:04:27;17.80;66.60
71994;DHT22;59861;50.268;8.648;2023-05-07T00:06:54;17.80;66.60
71994;DHT22;59861;50.268;8.648;2023-05-07T00:09:21;17.80;67.50
71994;DHT22;59861;50.268;8.648;2023-05-07T00:11:48;17.80;66.60
71994;DHT22;59861;50.268;8.648;2023-05-07T00:14:15;17.80;66.70
71994;DHT22;59861;50.268;8.648;2023-05-07T00:16:41;17.80;66.60
71994;DHT22;59861;50.268;8.648;2023-05-07T00:19:08;17.80;66.60
71994;DHT22;59861;50.268;8.648;2023-05-07T00:21:35;17.80;66.60
71994;DHT22;59861;50.268;8.648;2023-05-07T00:24:02;17.80;66.70
71994;DHT22;59861;50.268;8.648;2023-05-07T00:26:29;17.80;66.60
71994;DHT22;59861;50.268;8.648;2023-05-07T00:29:05;17.80;66.50
71994;DHT22;59861;50.268;8.648;2023-05-07T00:31:31;17.80;66.60
71994;DHT22;59861;50.268;8.648;2023-05-07T00:33:58;17.80;66.50
71994;DHT22;59861;50.268;8.648;2023-05-07T00:36:25;17.80;66.50
71994;DHT22;59861;50.268;8.648;2023-05-07T00:38:53;17.80;66.40
71994;DHT22;59861;50.268;8.648;2023-05-07T00:41:21;17.80;66.40
71994;DHT22;59861;50.268;8.648;2023-05-07T00:43:48;17.80;66.50
71994;DHT22;59861;50.268;8.648;2023-05-07T00:46:17;17.80;66.50
71994;DHT22;59861;50.268;8.648;2023-05-07T00:48:44;17.80;66.60
71994;DHT22;59861;50.268;8.648;2023-05-07T00:51:11;17.80;66.40
71994;DHT22;59861;50.268;8.648;2023-05-07T00:53:38;17.80;66.40
71994;DHT22;59861;50.268;8.648;2023-05-07T00:56:05;17.80;66.40
71994;DHT22;59861;50.268;8.648;2023-05-07T00:58:33;17.80;66.40
71994;DHT22;59861;50.268;8.648;2023-05-07T01:01:00;17.80;66.40
71994;DHT22;59861;50.268;8.648;2023-05-07T01:03:27;17.80;66.40
71994;DHT22;59861;50.268;8.648;2023-05-07T01:05:53;17.80;66.40
71994;DHT22;59861;50.268;8.648;2023-05-07T01:08:22;17.80;66.30
71994;DHT22;59861;50.268;8.648;2023-05-07T01:10:50;17.80;66.40
71994;DHT22;59861;50.268;8.648;2023-05-07T01:13:18;17.80;66.60
71994;DHT22;59861;50.268;8.648;2023-05-07T01:15:46;17.80;66.50
71994;DHT22;59861;50.268;8.648;2023-05-07T01:18:13;17.80;66.40
71994;DHT22;59861;50.268;8.648;2023-05-07T01:20:39;17.70;66.40
71994;DHT22;59861;50.268;8.648;2023-05-07T01:23:07;17.80;66.40
71994;DHT22;59861;50.268;8.648;2023-05-07T01:25:34;17.80;66.40
71994;DHT22;59861;50.268;8.648;2023-05-07T01:28:00;17.80;67.30
71994;DHT22;59861;50.268;8.648;2023-05-07T01:30:28;17.70;66.30
71994;DHT22;59861;50.268;8.648;2023-05-07T01:33:04;17.70;66.30
71994;DHT22;59861;50.268;8.648;2023-05-07T01:35:34;17.70;66.30
71994;DHT22;59861;50.268;8.648;2023-05-07T01:38:00;17.70;66.30
71994;DHT22;59861;50.268;8.648;2023-05-07T01:40:29;17.70;66.30
71994;DHT22;59861;50.268;8.648;2023-05-07T01:42:56;17.70;66.30
71994;DHT22;59861;50.268;8.648;2023-05-07T01:45:23;17.70;66.30
71994;DHT22;59861;50.268;8.648;2023-05-07T01:47:51;17.70;66.30
71994;DHT22;59861;50.268;8.648;2023-05-07T01:50:18;17.70;67.00
71994;DHT22;59861;50.268;8.648;2023-05-07T01:52:45;17.70;66.40
71994;DHT22;59861;50.268;8.648;2023-05-07T01:55:13;17.70;66.30
71994;DHT22;59861;50.268;8.648;2023-05-07T01:57:40;17.70;66.40
71994;DHT22;59861;50.268;8.648;2023-05-07T02:00:07;17.70;66.30
71994;DHT22;59861;50.268;8.648;2023-05-07T02:02:35;17.70;66.30
71994;DHT22;59861;50.268;8.648;2023-05-07T02:05:02;17.70;66.40
71994;DHT22;59861;50.268;8.648;2023-05-07T02:07:28;17.70;66.30
71994;DHT22;59861;50.268;8.648;2023-05-07T02:09:55;17.70;66.40
71994;DHT22;59861;50.268;8.648;2023-05-07T02:12:22;17.70;66.40
71994;DHT22;59861;50.268;8.648;2023-05-07T02:14:49;17.70;66.40
71994;DHT22;59861;50.268;8.648;2023-05-07T02:17:16;17.70;66.40
71994;DHT22;59861;50.268;8.648;2023-05-07T02:19:43;17.70;66.70
71994;DHT22;59861;50.268;8.648;2023-05-07T02:22:09;17.70;66.40
71994;DHT22;59861;50.268;8.648;2023-05-07T02:24:36;17.70;66.40
71994;DHT22;59861;50.268;8.648;2023-05-07T02:27:03;17.70;66.40
71994;DHT22;59861;50.268;8.648;2023-05-07T02:29:30;17.70;66.40
71994;DHT22;59861;50.268;8.648;2023-05-07T02:31:57;17.70;66.30
71994;DHT22;59861;50.268;8.648;2023-05-07T02:34:24;17.70;66.50
71994;DHT22;59861;50.268;8.648;2023-05-07T02:36:51;17.70;66.30
71994;DHT22;59861;50.268;8.648;2023-05-07T02:39:17;17.60;66.40
71994;DHT22;59861;50.268;8.648;2023-05-07T02:41:44;17.70;66.40
71994;DHT22;59861;50.268;8.648;2023-05-07T02:44:11;17.60;66.30
71994;DHT22;59861;50.268;8.648;2023-05-07T02:46:38;17.60;66.30
71994;DHT22;59861;50.268;8.648;2023-05-07T02:49:05;17.60;66.30
71994;DHT22;59861;50.268;8.648;2023-05-07T02:51:31;17.60;66.20
71994;DHT22;59861;50.268;8.648;2023-05-07T02:53:58;17.70;66.40
71994;DHT22;59861;50.268;8.648;2023-05-07T02:56:26;17.60;66.20
71994;DHT22;59861;50.268;8.648;2023-05-07T02:58:53;17.70;66.30
71994;DHT22;59861;50.268;8.648;2023-05-07T03:01:20;17.70;66.20
71994;DHT22;59861;50.268;8.648;2023-05-07T03:03:47;17.70;66.20
71994;DHT22;59861;50.268;8.648;2023-05-07T03:06:14;17.70;66.30
71994;DHT22;59861;50.268;8.648;2023-05-07T03:08:41;17.60;66.30
71994;DHT22;59861;50.268;8.648;2023-05-07T03:11:08;17.60;66.30
71994;DHT22;59861;50.268;8.648;2023-05-07T03:13:34;17.60;66.10
71994;DHT22;59861;50.268;8.648;2023-05-07T03:16:01;17.60;66.20
71994;DHT22;59861;50.268;8.648;2023-05-07T03:18:28;17.60;66.10
71994;DHT22;59861;50.268;8.648;2023-05-07T03:20:55;17.60;66.20
71994;DHT22;59861;50.268;8.648;2023-05-07T03:23:21;17.60;66.00
71994;DHT22;59861;50.268;8.648;2023-05-07T03:25:48;17.60;66.10
71994;DHT22;59861;50.268;8.648;2023-05-07T03:28:15;17.60;66.00
71994;DHT22;59861;50.268;8.648;2023-05-07T03:30:42;17.60;66.00
71994;DHT22;59861;50.268;8.648;2023-05-07T03:33:09;17.70;66.00
71994;DHT22;59861;50.268;8.648;2023-05-07T03:35:35;17.70;66.00
71994;DHT22;59861;50.268;8.648;2023-05-07T03:38:02;17.60;65.90
71994;DHT22;59861;50.268;8.648;2023-05-07T03:40:29;17.60;66.90
71994;DHT22;59861;50.268;8.648;2023-05-07T03:42:56;17.60;65.90
71994;DHT22;59861;50.268;8.648;2023-05-07T03:45:23;17.60;66.00
71994;DHT22;59861;50.268;8.648;2023-05-07T03:47:49;17.60;65.90
71994;DHT22;59861;50.268;8.648;2023-05-07T03:50:16;17.60;65.90
71994;DHT22;59861;50.268;8.648;2023-05-07T03:52:43;17.60;65.90
71994;DHT22;59861;50.268;8.648;2023-05-07T03:55:10;17.60;65.90
71994;DHT22;59861;50.268;8.648;2023-05-07T03:57:37;17.60;65.90
71994;DHT22;59861;50.268;8.648;2023-05-07T04:00:04;17.60;65.90
71994;DHT22;59861;50.268;8.648;2023-05-07T04:02:32;17.60;66.80
71994;DHT22;59861;50.268;8.648;2023-05-07T04:04:59;17.60;65.90
71994;DHT22;59861;50.268;8.648;2023-05-07T04:07:26;17.60;65.80
71994;DHT22;59861;50.268;8.648;2023-05-07T04:09:53;17.60;65.90
71994;DHT22;59861;50.268;8.648;2023-05-07T04:12:20;17.60;65.90
71994;DHT22;59861;50.268;8.648;2023-05-07T04:14:46;17.60;65.80
71994;DHT22;59861;50.268;8.648;2023-05-07T04:17:13;17.60;65.80
71994;DHT22;59861;50.268;8.648;2023-05-07T04:19:40;17.60;65.90
71994;DHT22;59861;50.268;8.648;2023-05-07T04:22:09;17.60;65.90
71994;DHT22;59861;50.268;8.648;2023-05-07T04:24:36;17.60;65.80
71994;DHT22;59861;50.268;8.648;2023-05-07T04:27:03;17.60;65.80
71994;DHT22;59861;50.268;8.648;2023-05-07T04:29:30;17.60;65.80
71994;DHT22;59861;50.268;8.648;2023-05-07T04:31:57;17.60;65.70
71994;DHT22;59861;50.268;8.648;2023-05-07T04:34:24;17.60;65.80
71994;DHT22;59861;50.268;8.648;2023-05-07T04:36:51;17.60;65.80
71994;DHT22;59861;50.268;8.648;2023-05-07T04:39:18;17.60;65.70
71994;DHT22;59861;50.268;8.648;2023-05-07T04:41:44;17.60;65.80
71994;DHT22;59861;50.268;8.648;2023-05-07T04:44:11;17.60;65.80
71994;DHT22;59861;50.268;8.648;2023-05-07T04:46:38;17.60;65.70
71994;DHT22;59861;50.268;8.648;2023-05-07T04:49:05;17.60;65.80
71994;DHT22;59861;50.268;8.648;2023-05-07T04:51:32;17.60;65.70
71994;DHT22;59861;50.268;8.648;2023-05-07T04:53:59;17.60;65.80
71994;DHT22;59861;50.268;8.648;2023-05-07T04:56:27;17.60;65.80
71994;DHT22;59861;50.268;8.648;2023-05-07T04:58:54;17.60;65.80
71994;DHT22;59861;50.268;8.648;2023-05-07T05:01:21;17.60;65.80
71994;DHT22;59861;50.268;8.648;2023-05-07T05:03:48;17.60;65.80
71994;DHT22;59861;50.268;8.648;2023-05-07T05:06:15;17.60;65.80
71994;DHT22;59861;50.268;8.648;2023-05-07T05:08:42;17.60;65.70
71994;DHT22;59861;50.268;8.648;2023-05-07T05:11:08;17.60;65.80
71994;DHT22;59861;50.268;8.648;2023-05-07T05:13:35;17.60;65.70
71994;DHT22;59861;50.268;8.648;2023-05-07T05:16:02;17.60;65.80
71994;DHT22;59861;50.268;8.648;2023-05-07T05:18:29;17.60;65.80
71994;DHT22;59861;50.268;8.648;2023-05-07T05:20:56;17.50;65.80
71994;DHT22;59861;50.268;8.648;2023-05-07T05:23:22;17.60;65.80
71994;DHT22;59861;50.268;8.648;2023-05-07T05:25:49;17.60;65.80
71994;DHT22;59861;50.268;8.648;2023-05-07T05:28:16;17.60;65.80
71994;DHT22;59861;50.268;8.648;2023-05-07T05:30:43;17.60;65.90
71994;DHT22;59861;50.268;8.648;2023-05-07T05:33:10;17.60;65.80
71994;DHT22;59861;50.268;8.648;2023-05-07T05:35:36;17.60;65.80
71994;DHT22;59861;50.268;8.648;2023-05-07T05:38:03;17.60;65.80
71994;DHT22;59861;50.268;8.648;2023-05-07T05:40:30;17.60;65.80
71994;DHT22;59861;50.268;8.648;2023-05-07T05:42:57;17.60;65.70
71994;DHT22;59861;50.268;8.648;2023-05-07T05:45:24;17.50;66.00
71994;DHT22;59861;50.268;8.648;2023-05-07T05:47:51;17.50;66.20
71994;DHT22;59861;50.268;8.648;2023-05-07T05:50:18;17.50;66.40
71994;DHT22;59861;50.268;8.648;2023-05-07T05:52:45;17.50;66.20
71994;DHT22;59861;50.268;8.648;2023-05-07T05:55:11;17.50;67.40
71994;DHT22;59861;50.268;8.648;2023-05-07T05:57:38;17.50;66.40
71994;DHT22;59861;50.268;8.648;2023-05-07T06:00:06;17.50;66.60
71994;DHT22;59861;50.268;8.648;2023-05-07T06:02:33;17.50;66.60
71994;DHT22;59861;50.268;8.648;2023-05-07T06:05:00;17.50;66.50
71994;DHT22;59861;50.268;8.648;2023-05-07T06:07:27;17.50;66.60
71994;DHT22;59861;50.268;8.648;2023-05-07T06:09:53;17.50;66.70
71994;DHT22;59861;50.268;8.648;2023-05-07T06:12:21;17.50;66.60
71994;DHT22;59861;50.268;8.648;2023-05-07T06:14:48;17.60;66.70
71994;DHT22;59861;50.268;8.648;2023-05-07T06:17:14;17.60;66.70
71994;DHT22;59861;50.268;8.648;2023-05-07T06:19:41;17.60;66.60
71994;DHT22;59861;50.268;8.648;2023-05-07T06:22:08;17.60;66.60
71994;DHT22;59861;50.268;8.648;2023-05-07T06:24:35;17.60;66.70
71994;DHT22;59861;50.268;8.648;2023-05-07T06:27:02;17.60;66.70
71994;DHT22;59861;50.268;8.648;2023-05-07T06:29:29;17.60;66.70
71994;DHT22;59861;50.268;8.648;2023-05-07T06:32:05;17.60;66.70
71994;DHT22;59861;50.268;8.648;2023-05-07T06:34:26;17.60;66.60
71994;DHT22;59861;50.268;8.648;2023-05-07T06:36:52;17.60;66.70
71994;DHT22;59861;50.268;8.648;2023-05-07T06:39:19;17.60;66.60
71994;DHT22;59861;50.268;8.648;2023-05-07T06:41:46;17.60;66.80
71994;DHT22;59861;50.268;8.648;2023-05-07T06:44:13;17.60;66.70
71994;DHT22;59861;50.268;8.648;2023-05-07T06:46:41;17.60;66.80
71994;DHT22;59861;50.268;8.648;2023-05-07T06:49:07;17.60;67.70
71994;DHT22;59861;50.268;8.648;2023-05-07T06:51:34;17.60;66.80
71994;DHT22;59861;50.268;8.648;2023-05-07T06:54:01;17.70;66.70
71994;DHT22;59861;50.268;8.648;2023-05-07T06:56:30;17.60;66.70
71994;DHT22;59861;50.268;8.648;2023-05-07T06:58:57;17.70;66.70
71994;DHT22;59861;50.268;8.648;2023-05-07T07:01:24;17.70;66.60
71994;DHT22;59861;50.268;8.648;2023-05-07T07:03:50;17.70;66.70
71994;DHT22;59861;50.268;8.648;2023-05-07T07:06:17;17.70;66.60
71994;DHT22;59861;50.268;8.648;2023-05-07T07:08:44;17.70;66.60
71994;DHT22;59861;50.268;8.648;2023-05-07T07:11:11;17.70;66.60
71994;DHT22;59861;50.268;8.648;2023-05-07T07:13:38;17.70;66.60
71994;DHT22;59861;50.268;8.648;2023-05-07T07:16:05;17.70;66.60
71994;DHT22;59861;50.268;8.648;2023-05-07T07:18:32;17.70;66.70
71994;DHT22;59861;50.268;8.648;2023-05-07T07:20:59;17.70;66.70
71994;DHT22;59861;50.268;8.648;2023-05-07T07:23:26;17.80;66.70
71994;DHT22;59861;50.268;8.648;2023-05-07T07:25:53;17.70;66.60
71994;DHT22;59861;50.268;8.648;2023-05-07T07:28:20;17.70;66.70
71994;DHT22;59861;50.268;8.648;2023-05-07T07:30:47;17.70;64.20
71994;DHT22;59861;50.268;8.648;2023-05-07T07:33:14;17.70;63.70
71994;DHT22;59861;50.268;8.648;2023-05-07T07:35:41;17.60;64.30
71994;DHT22;59861;50.268;8.648;2023-05-07T07:38:07;17.60;63.90
71994;DHT22;59861;50.268;8.648;2023-05-07T07:40:34;17.60;64.30
71994;DHT22;59861;50.268;8.648;2023-05-07T07:43:01;17.60;64.90
71994;DHT22;59861;50.268;8.648;2023-05-07T07:45:28;17.60;64.60
71994;DHT22;59861;50.268;8.648;2023-05-07T07:47:55;17.60;64.10
71994;DHT22;59861;50.268;8.648;2023-05-07T07:50:22;17.60;64.40
71994;DHT22;59861;50.268;8.648;2023-05-07T07:52:49;17.50;64.80
71994;DHT22;59861;50.268;8.648;2023-05-07T07:55:15;17.60;64.50
71994;DHT22;59861;50.268;8.648;2023-05-07T07:57:46;17.50;64.40
71994;DHT22;59861;50.268;8.648;2023-05-07T08:00:14;17.50;64.70
71994;DHT22;59861;50.268;8.648;2023-05-07T08:02:41;17.50;65.20
71994;DHT22;59861;50.268;8.648;2023-05-07T08:05:08;17.50;65.10
71994;DHT22;59861;50.268;8.648;2023-05-07T08:07:34;17.50;65.30
71994;DHT22;59861;50.268;8.648;2023-05-07T08:10:01;17.50;65.40
71994;DHT22;59861;50.268;8.648;2023-05-07T08:12:28;17.50;65.60
71994;DHT22;59861;50.268;8.648;2023-05-07T08:14:55;17.50;65.90
71994;DHT22;59861;50.268;8.648;2023-05-07T08:17:22;17.60;66.50
71994;DHT22;59861;50.268;8.648;2023-05-07T08:19:49;17.60;66.80
71994;DHT22;59861;50.268;8.648;2023-05-07T08:22:17;17.70;67.00
71994;DHT22;59861;50.268;8.648;2023-05-07T08:24:44;17.70;67.30
71994;DHT22;59861;50.268;8.648;2023-05-07T08:27:11;17.70;67.30
71994;DHT22;59861;50.268;8.648;2023-05-07T08:29:37;17.70;67.30
71994;DHT22;59861;50.268;8.648;2023-05-07T08:32:04;17.80;67.70
71994;DHT22;59861;50.268;8.648;2023-05-07T08:34:31;17.80;67.80
71994;DHT22;59861;50.268;8.648;2023-05-07T08:36:58;17.80;67.70
71994;DHT22;59861;50.268;8.648;2023-05-07T08:39:25;17.80;67.80
71994;DHT22;59861;50.268;8.648;2023-05-07T08:41:52;17.80;68.00
71994;DHT22;59861;50.268;8.648;2023-05-07T08:44:20;17.80;68.10
71994;DHT22;59861;50.268;8.648;2023-05-07T08:46:49;17.80;68.30
71994;DHT22;59861;50.268;8.648;2023-05-07T08:49:19;17.80;68.20
71994;DHT22;59861;50.268;8.648;2023-05-07T08:51:46;17.80;68.40
71994;DHT22;59861;50.268;8.648;2023-05-07T08:54:15;17.90;68.70
71994;DHT22;59861;50.268;8.648;2023-05-07T08:56:41;17.80;68.60
71994;DHT22;59861;50.268;8.648;2023-05-07T08:59:08;17.90;68.60
71994;DHT22;59861;50.268;8.648;2023-05-07T09:01:35;17.90;69.00
71994;DHT22;59861;50.268;8.648;2023-05-07T09:04:02;17.90;68.70
71994;DHT22;59861;50.268;8.648;2023-05-07T09:06:29;17.90;68.90
71994;DHT22;59861;50.268;8.648;2023-05-07T09:08:56;17.90;69.00
71994;DHT22;59861;50.268;8.648;2023-05-07T09:11:24;17.90;69.20
71994;DHT22;59861;50.268;8.648;2023-05-07T09:13:54;17.90;69.50
71994;DHT22;59861;50.268;8.648;2023-05-07T09:16:23;17.90;69.50
71994;DHT22;59861;50.268;8.648;2023-05-07T09:18:50;17.90;69.30
71994;DHT22;59861;50.268;8.648;2023-05-07T09:21:18;17.90;69.50
71994;DHT22;59861;50.268;8.648;2023-05-07T09:23:47;17.90;69.40
71994;DHT22;59861;50.268;8.648;2023-05-07T09:26:14;17.90;69.40
71994;DHT22;59861;50.268;8.648;2023-05-07T09:28:41;17.90;69.60
71994;DHT22;59861;50.268;8.648;2023-05-07T09:31:09;17.90;69.70
71994;DHT22;59861;50.268;8.648;2023-05-07T09:33:36;18.00;69.90
71994;DHT22;59861;50.268;8.648;2023-05-07T09:36:06;18.00;69.60
71994;DHT22;59861;50.268;8.648;2023-05-07T09:38:33;18.00;70.10
71994;DHT22;59861;50.268;8.648;2023-05-07T09:41:04;18.00;69.50
71994;DHT22;59861;50.268;8.648;2023-05-07T09:43:32;18.10;69.60
71994;DHT22;59861;50.268;8.648;2023-05-07T09:46:03;18.10;69.00
71994;DHT22;59861;50.268;8.648;2023-05-07T09:48:31;18.30;69.40
71994;DHT22;59861;50.268;8.648;2023-05-07T09:50:59;18.30;68.10
71994;DHT22;59861;50.268;8.648;2023-05-07T09:53:27;18.20;66.80
71994;DHT22;59861;50.268;8.648;2023-05-07T09:55:54;18.10;67.30
71994;DHT22;59861;50.268;8.648;2023-05-07T09:58:22;18.00;67.10
71994;DHT22;59861;50.268;8.648;2023-05-07T10:00:49;18.00;68.10
71994;DHT22;59861;50.268;8.648;2023-05-07T10:03:16;18.10;67.70
71994;DHT22;59861;50.268;8.648;2023-05-07T10:05:46;18.10;67.40
71994;DHT22;59861;50.268;8.648;2023-05-07T10:08:13;18.10;67.20
71994;DHT22;59861;50.268;8.648;2023-05-07T10:10:41;18.10;66.70
71994;DHT22;59861;50.268;8.648;2023-05-07T10:13:09;18.10;67.20
71994;DHT22;59861;50.268;8.648;2023-05-07T10:15:37;18.10;67.20
71994;DHT22;59861;50.268;8.648;2023-05-07T10:18:04;18.10;67.10
71994;DHT22;59861;50.268;8.648;2023-05-07T10:20:33;18.10;67.10
71994;DHT22;59861;50.268;8.648;2023-05-07T10:23:00;18.20;66.90
71994;DHT22;59861;50.268;8.648;2023-05-07T10:25:30;18.20;67.20
71994;DHT22;59861;50.268;8.648;2023-05-07T10:27:57;18.20;67.10
71994;DHT22;59861;50.268;8.648;2023-05-07T10:33:12;18.20;67.00
71994;DHT22;59861;50.268;8.648;2023-05-07T10:35:41;18.20;68.00
71994;DHT22;59861;50.268;8.648;2023-05-07T10:38:08;18.20;67.00
71994;DHT22;59861;50.268;8.648;2023-05-07T10:40:35;18.30;67.10
71994;DHT22;59861;50.268;8.648;2023-05-07T10:43:03;18.30;67.10
71994;DHT22;59861;50.268;8.648;2023-05-07T10:45:33;18.20;67.10
71994;DHT22;59861;50.268;8.648;2023-05-07T10:48:13;18.20;67.10
71994;DHT22;59861;50.268;8.648;2023-05-07T10:50:41;18.30;67.00
71994;DHT22;59861;50.268;8.648;2023-05-07T10:55:46;18.20;67.20
71994;DHT22;59861;50.268;8.648;2023-05-07T10:58:22;18.30;67.40
71994;DHT22;59861;50.268;8.648;2023-05-07T11:00:55;18.30;67.40
71994;DHT22;59861;50.268;8.648;2023-05-07T11:03:20;18.30;67.30
71994;DHT22;59861;50.268;8.648;2023-05-07T11:05:48;18.30;67.40
71994;DHT22;59861;50.268;8.648;2023-05-07T11:08:18;18.20;67.30
71994;DHT22;59861;50.268;8.648;2023-05-07T11:10:51;18.30;67.60
71994;DHT22;59861;50.268;8.648;2023-05-07T11:13:19;18.20;67.70
71994;DHT22;59861;50.268;8.648;2023-05-07T11:15:47;18.20;67.80
71994;DHT22;59861;50.268;8.648;2023-05-07T11:18:15;18.20;67.80
71994;DHT22;59861;50.268;8.648;2023-05-07T11:23:54;18.20;67.90
71994;DHT22;59861;50.268;8.648;2023-05-07T11:25:38;18.20;68.00
71994;DHT22;59861;50.268;8.648;2023-05-07T11:28:07;18.20;68.10
71994;DHT22;59861;50.268;8.648;2023-05-07T11:30:35;18.20;68.10
71994;DHT22;59861;50.268;8.648;2023-05-07T11:33:02;18.20;68.00
71994;DHT22;59861;50.268;8.648;2023-05-07T11:35:29;18.20;68.00
71994;DHT22;59861;50.268;8.648;2023-05-07T11:37:59;18.20;68.10
71994;DHT22;59861;50.268;8.648;2023-05-07T11:40:26;18.20;68.00
71994;DHT22;59861;50.268;8.648;2023-05-07T11:42:54;18.20;68.20
71994;DHT22;59861;50.268;8.648;2023-05-07T11:45:24;18.20;68.50
71994;DHT22;59861;50.268;8.648;2023-05-07T11:47:51;18.20;68.60
71994;DHT22;59861;50.268;8.648;2023-05-07T11:50:18;18.20;68.60
71994;DHT22;59861;50.268;8.648;2023-05-07T11:52:51;18.20;68.50
71994;DHT22;59861;50.268;8.648;2023-05-07T11:55:18;18.10;68.50
71994;DHT22;59861;50.268;8.648;2023-05-07T11:57:45;18.20;68.60
71994;DHT22;59861;50.268;8.648;2023-05-07T12:00:15;18.20;68.70
71994;DHT22;59861;50.268;8.648;2023-05-07T12:02:41;18.20;68.80
71994;DHT22;59861;50.268;8.648;2023-05-07T12:05:08;18.20;68.60
71994;DHT22;59861;50.268;8.648;2023-05-07T12:07:35;18.20;68.70
71994;DHT22;59861;50.268;8.648;2023-05-07T12:10:05;18.10;68.70
71994;DHT22;59861;50.268;8.648;2023-05-07T12:12:38;18.10;68.70
71994;DHT22;59861;50.268;8.648;2023-05-07T12:15:00;18.10;68.70
71994;DHT22;59861;50.268;8.648;2023-05-07T12:17:27;18.10;68.80
71994;DHT22;59861;50.268;8.648;2023-05-07T12:19:54;18.10;69.40
71994;DHT22;59861;50.268;8.648;2023-05-07T12:22:21;18.10;69.00
71994;DHT22;59861;50.268;8.648;2023-05-07T12:24:49;18.10;68.80
71994;DHT22;59861;50.268;8.648;2023-05-07T12:27:16;18.10;69.00
71994;DHT22;59861;50.268;8.648;2023-05-07T12:29:44;18.10;69.00
71994;DHT22;59861;50.268;8.648;2023-05-07T12:32:18;18.10;69.00
71994;DHT22;59861;50.268;8.648;2023-05-07T12:34:45;18.10;69.10
71994;DHT22;59861;50.268;8.648;2023-05-07T12:37:12;18.10;69.00
71994;DHT22;59861;50.268;8.648;2023-05-07T12:39:48;18.10;69.20
71994;DHT22;59861;50.268;8.648;2023-05-07T12:42:16;18.10;69.00
71994;DHT22;59861;50.268;8.648;2023-05-07T12:44:45;18.10;69.10
71994;DHT22;59861;50.268;8.648;2023-05-07T12:47:11;18.10;69.10
71994;DHT22;59861;50.268;8.648;2023-05-07T12:49:38;18.10;69.20
71994;DHT22;59861;50.268;8.648;2023-05-07T12:52:05;18.10;69.20
71994;DHT22;59861;50.268;8.648;2023-05-07T12:54:33;18.10;69.20
71994;DHT22;59861;50.268;8.648;2023-05-07T12:57:08;18.10;69.30
71994;DHT22;59861;50.268;8.648;2023-05-07T12:59:36;18.10;69.40
71994;DHT22;59861;50.268;8.648;2023-05-07T13:02:00;18.10;69.20
71994;DHT22;59861;50.268;8.648;2023-05-07T13:04:26;18.10;69.20
71994;DHT22;59861;50.268;8.648;2023-05-07T13:06:53;18.10;69.30
71994;DHT22;59861;50.268;8.648;2023-05-07T13:09:20;18.20;69.30
71994;DHT22;59861;50.268;8.648;2023-05-07T13:11:47;18.20;69.40
71994;DHT22;59861;50.268;8.648;2023-05-07T13:14:14;18.20;69.20
71994;DHT22;59861;50.268;8.648;2023-05-07T13:16:41;18.10;69.20
71994;DHT22;59861;50.268;8.648;2023-05-07T13:19:08;18.20;69.30
71994;DHT22;59861;50.268;8.648;2023-05-07T13:21:34;18.10;69.30
71994;DHT22;59861;50.268;8.648;2023-05-07T13:24:01;18.10;69.40
71994;DHT22;59861;50.268;8.648;2023-05-07T13:26:29;18.10;69.50
71994;DHT22;59861;50.268;8.648;2023-05-07T13:28:56;18.10;69.40
71994;DHT22;59861;50.268;8.648;2023-05-07T13:31:24;18.10;69.60
71994;DHT22;59861;50.268;8.648;2023-05-07T13:33:50;18.10;69.30
71994;DHT22;59861;50.268;8.648;2023-05-07T13:36:18;18.10;69.50
71994;DHT22;59861;50.268;8.648;2023-05-07T13:38:45;18.10;70.40
71994;DHT22;59861;50.268;8.648;2023-05-07T13:41:12;18.10;69.80
71994;DHT22;59861;50.268;8.648;2023-05-07T13:43:39;18.10;69.60
71994;DHT22;59861;50.268;8.648;2023-05-07T13:46:06;18.10;69.60
71994;DHT22;59861;50.268;8.648;2023-05-07T13:48:33;18.10;69.60
71994;DHT22;59861;50.268;8.648;2023-05-07T13:51:00;18.10;69.60
71994;DHT22;59861;50.268;8.648;2023-05-07T13:53:27;18.10;69.60
71994;DHT22;59861;50.268;8.648;2023-05-07T13:55:53;18.10;69.60
71994;DHT22;59861;50.268;8.648;2023-05-07T13:58:20;18.10;69.60
71994;DHT22;59861;50.268;8.648;2023-05-07T14:00:47;18.10;69.70
71994;DHT22;59861;50.268;8.648;2023-05-07T14:03:14;18.10;69.60
71994;DHT22;59861;50.268;8.648;2023-05-07T14:05:41;18.10;69.80
71994;DHT22;59861;50.268;8.648;2023-05-07T14:08:07;18.10;69.80
71994;DHT22;59861;50.268;8.648;2023-05-07T14:10:34;18.10;70.00
71994;DHT22;59861;50.268;8.648;2023-05-07T14:13:01;18.10;69.60
71994;DHT22;59861;50.268;8.648;2023-05-07T14:15:28;18.10;69.80
71994;DHT22;59861;50.268;8.648;2023-05-07T14:17:55;18.10;69.70
71994;DHT22;59861;50.268;8.648;2023-05-07T14:20:23;18.10;69.70
71994;DHT22;59861;50.268;8.648;2023-05-07T14:22:50;18.10;69.80
71994;DHT22;59861;50.268;8.648;2023-05-07T14:25:16;18.10;69.80
71994;DHT22;59861;50.268;8.648;2023-05-07T14:27:43;18.10;69.80
71994;DHT22;59861;50.268;8.648;2023-05-07T14:30:10;18.10;70.00
71994;DHT22;59861;50.268;8.648;2023-05-07T14:32:37;18.10;69.80
71994;DHT22;59861;50.268;8.648;2023-05-07T14:35:04;18.10;69.90
71994;DHT22;59861;50.268;8.648;2023-05-07T14:37:31;18.10;69.80
71994;DHT22;59861;50.268;8.648;2023-05-07T14:39:58;18.10;70.00
71994;DHT22;59861;50.268;8.648;2023-05-07T14:42:24;18.10;69.80
71994;DHT22;59861;50.268;8.648;2023-05-07T14:44:51;18.10;70.00
71994;DHT22;59861;50.268;8.648;2023-05-07T14:47:18;18.10;69.90
71994;DHT22;59861;50.268;8.648;2023-05-07T14:49:45;18.10;70.00
71994;DHT22;59861;50.268;8.648;2023-05-07T14:52:12;18.10;70.10
71994;DHT22;59861;50.268;8.648;2023-05-07T14:54:39;18.10;71.10
71994;DHT22;59861;50.268;8.648;2023-05-07T14:57:06;18.10;70.10
71994;DHT22;59861;50.268;8.648;2023-05-07T14:59:33;18.10;70.00
71994;DHT22;59861;50.268;8.648;2023-05-07T15:02:00;18.10;70.00
71994;DHT22;59861;50.268;8.648;2023-05-07T15:04:27;18.10;70.00
71994;DHT22;59861;50.268;8.648;2023-05-07T15:06:54;18.20;70.10
71994;DHT22;59861;50.268;8.648;2023-05-07T15:09:21;18.20;70.00
71994;DHT22;59861;50.268;8.648;2023-05-07T15:11:48;18.30;69.60
71994;DHT22;59861;50.268;8.648;2023-05-07T15:14:15;18.30;69.50
71994;DHT22;59861;50.268;8.648;2023-05-07T15:16:42;18.30;69.60
71994;DHT22;59861;50.268;8.648;2023-05-07T15:19:09;18.30;69.70
71994;DHT22;59861;50.268;8.648;2023-05-07T15:21:35;18.20;69.70
71994;DHT22;59861;50.268;8.648;2023-05-07T15:24:02;18.30;70.00
71994;DHT22;59861;50.268;8.648;2023-05-07T15:26:29;18.30;69.80
71994;DHT22;59861;50.268;8.648;2023-05-07T15:28:56;18.30;69.80
71994;DHT22;59861;50.268;8.648;2023-05-07T15:31:27;18.30;69.70
71994;DHT22;59861;50.268;8.648;2023-05-07T15:33:51;18.30;69.80
71994;DHT22;59861;50.268;8.648;2023-05-07T15:36:19;18.30;69.90
71994;DHT22;59861;50.268;8.648;2023-05-07T15:38:46;18.30;69.80